Nearby METAR (Airport) Reports

 

KPRN - Greenville, Alabama, USA
Distance from station: WNW 17mi, 28km
Updated: Sun, 22-May-2022 10:58pm CDT
Light rain, Overcast
Light rain, Overcast
 Wind from E
Wind: E 6 mph , 9 km/h
Temperature: 66°F , 19°C
Dew Point: 66°F , 19°C
Humidity: 100%
Barometer: 30.07 inHg , 1018.3 hPa
Summary: Light rain
Clouds: Overcast
Visibility: 10 miles , 16 km
Cloud details: Partly cloudy 200 ft
Overcast 11000 ft
2022/05/23 03:58 KPRN 230358Z AUTO 08005KT 10SM -RA SCT002 OVC110 19/19 A3007 RMK AO2 RAB45 SLP129 P0000 T01940194
KTOI - Troy, Alabama, USA
Distance from station: ENE 21mi, 34km
Updated: Sun, 22-May-2022 11:16pm CDT
Overcast
Overcast
 Wind from E
Wind: E 8 mph , 13 km/h
Temperature: 72°F , 22°C
Dew Point: 66°F , 19°C
Humidity: 83%
Barometer: 30.10 inHg , 1019.3 hPa
Clouds: Overcast
Visibility: 10 miles , 16 km
Cloud details: Overcast 600 ft
2022/05/23 04:16 KTOI 230416Z AUTO 08007KT 10SM OVC006 22/19 A3010 RMK AO2 T02170194
K79J - Andalusia/Opp Ar, Alabama, USA
Distance from station: S 29mi, 47km
Updated: Sun, 22-May-2022 10:56pm CDT
Light rain, Overcast
Light rain, Overcast
 Wind from E
Wind: E 12 mph , 19 km/h
Temperature: 73°F , 23°C
Dew Point: 66°F , 19°C
Humidity: 78%
Barometer: 30.05 inHg , 1017.6 hPa
Summary: Light rain
Clouds: Overcast
Visibility: 5 miles , 8 km
Cloud details: Partly cloudy 3700 ft
Mostly cloudy 6000 ft
Overcast 9500 ft
2022/05/23 03:56 K79J 230356Z AUTO 08010KT 5SM -RA SCT037 BKN060 OVC095 23/19 A3005 RMK AO2 RAB46 SLP169 P0006 T02280194
 
KMGM - Montgomery, Alabama, USA
Distance from station: N 39mi, 63km
Updated: Sun, 22-May-2022 10:53pm CDT
Clear
Clear
 Wind from E
Wind: E 7 mph , 11 km/h
Temperature: 72°F , 22°C
Dew Point: 66°F , 19°C
Humidity: 83%
Barometer: 30.10 inHg , 1019.3 hPa
Clouds: Clear
Visibility: 10 miles , 16 km
2022/05/23 03:53 KMGM 230353Z AUTO 09006KT 10SM CLR 22/19 A3010 RMK AO2 SLP189 T02170194 $
KMXF - Maxwell Afb/Mgm, Alabama, USA
Distance from station: N 44mi, 70km
Updated: Sun, 22-May-2022 10:56pm CDT
Mostly cloudy
Mostly cloudy
 Wind from ESE
Wind: ESE 6 mph , 9 km/h
Temperature: 70°F , 21°C
Dew Point: 66°F , 19°C
Humidity: 88%
Barometer: 30.08 inHg , 1018.6 hPa
Clouds: Mostly cloudy
Visibility: 10 miles , 16 km
Cloud details: Partly cloudy 14000 ft
Mostly cloudy 17000 ft
2022/05/23 03:56 KMXF 230356Z AUTO 11005KT 10SM SCT140 BKN170 21/19 A3008 RMK AO2 SLP187 T02120193
KLOR - Lowe Ahp/Ft. Ruc, Alabama, USA
Distance from station: SE 44mi, 71km
Updated: Sun, 22-May-2022 11:09pm CDT
Mostly cloudy
Mostly cloudy
 Wind from ENE
Wind: ENE 5 mph , 7 km/h
Temperature: 68°F , 20°C
Dew Point: 66°F , 19°C
Humidity: 94%
Barometer: 30.11 inHg , 1019.6 hPa
Clouds: Mostly cloudy
Visibility: 10 miles , 16 km
Cloud details: Mostly cloudy 14000 ft
Mostly cloudy 23000 ft
2022/05/23 04:09 KLOR 230409Z AUTO 07004KT 10SM BKN140 BKN230 20/19 A3011 RMK AO2 LTG DSNT SW PRESFR SLP178 $
 
KGZH - Evergreen, Alabama, USA
Distance from station: WSW 46mi, 75km
Updated: Sun, 22-May-2022 11:16pm CDT
Nearby thunderstorm, Heavy rain, Mist, Overcast
Nearby thunderstorm, Heavy rain, Mist, Overcast
 Wind from NE
Wind: NE 7 mph , 11 km/h
Temperature: 68°F , 20°C
Dew Point: 66°F , 19°C
Humidity: 94%
Barometer: 30.04 inHg , 1017.3 hPa
Summary: Nearby thunderstorm, Heavy rain, Mist
Clouds: Overcast
Visibility: 2 1/2 miles , 4 km
Cloud details: Few Clouds 1500 ft
Mostly cloudy 2700 ft
Overcast 3800 ft
2022/05/23 04:16 KGZH 230416Z AUTO 05006KT 2 1/2SM VCTS +RA BR FEW015 BKN027 OVC038 20/19 A3004 RMK AO2 LTG DSNT W P0018 T02000189
K0J4 - Florala Muni, Alabama, USA
Distance from station: S 47mi, 76km
Updated: Sun, 22-May-2022 11:11pm CDT
Heavy rain, Mist, Overcast
Heavy rain, Mist, Overcast
 Wind from varies
Wind: varies 7 mph , 11 km/h
Temperature: 70°F , 21°C
Dew Point: 64°F , 18°C
Humidity: 83%
Barometer: 30.07 inHg , 1018.3 hPa
Summary: Heavy rain, Mist
Clouds: Overcast
Visibility: 1 mile , 2 km
Cloud details: Few Clouds 500 ft
Overcast 1400 ft
2022/05/23 04:11 K0J4 230411Z AUTO VRB06KT 1SM +RA BR FEW005 OVC014 21/18 A3007 RMK AO2 P0027 T02060183 $
KOZR - Ozark/Cairns Aaf, Alabama, USA
Distance from station: SE 49mi, 78km
Updated: Sun, 22-May-2022 10:56pm CDT
Few Clouds
Few Clouds
 Wind from ENE
Wind: ENE 3 mph , 6 km/h
Temperature: 68°F , 20°C
Dew Point: 68°F , 20°C
Humidity: 100%
Barometer: 30.08 inHg , 1018.6 hPa
Clouds: Few Clouds
Visibility: 10 miles , 16 km
Cloud details: Few Clouds 2600 ft
2022/05/23 03:56 KOZR 230356Z AUTO 07003KT 10SM FEW026 20/20 A3008 RMK AO2 SLP186 T01990197 $
 
KHEY - Ft Rucker/Hanche, Alabama, USA
Distance from station: ESE 49mi, 79km
Updated: Fri, 20-May-2022 10:58am CDT
NOT Current

 
2022/05/20 15:58 KHEY 201558Z AUTO M M M M M M RMK AO2 SLPNO PWINO PNO FZRANO TSNO $
KDHN - Dothan, Alabama, USA
Distance from station: ESE 61mi, 97km
Updated: Sun, 22-May-2022 10:53pm CDT
Few Clouds
Few Clouds
 Wind from E
Wind: E 8 mph , 13 km/h
Temperature: 70°F , 21°C
Dew Point: 68°F , 20°C
Humidity: 94%
Barometer: 30.14 inHg , 1020.7 hPa
Clouds: Few Clouds
Visibility: M 10 miles , 16 km
Cloud details: Few Clouds 3400 ft
2022/05/23 03:53 KDHN 230353Z AUTO 09007KT 10SM FEW034 21/20 A3014 RMK AO2 SLP201 T02110200
KCEW - Crestview, Florida, USA
Distance from station: S 66mi, 107km
Updated: Sun, 22-May-2022 10:53pm CDT
Light rain, Overcast
Light rain, Overcast
 Wind from ESE
Wind: ESE 3 mph , 6 km/h
Temperature: 70°F , 21°C
Dew Point: 68°F , 20°C
Humidity: 94%
Barometer: 30.05 inHg , 1017.6 hPa
Summary: Light rain
Clouds: Overcast
Visibility: 10 miles , 16 km
Cloud details: Mostly cloudy 900 ft
Overcast 1500 ft
2022/05/23 03:53 KCEW 230353Z AUTO 11003KT 10SM -RA BKN009 OVC015 21/20 A3005 RMK AO2 SLP174 P0005 T02060200 TSNO
 
KEUF - Eufaula, Alabama, USA
Distance from station: ENE 73mi, 118km
Updated: Tue, 03-May-2022 12:58pm CDT
NOT Current
Few Clouds
Few Clouds
 Wind from varies
Wind: varies 7 mph , 11 km/h
Temperature: 88°F , 31°C
Heat Index: 89°F , 32°C
Dew Point: 63°F , 17°C
Humidity: 43%
Clouds: Few Clouds
Visibility: 10 miles , 16 km
Cloud details: Few Clouds 5000 ft
2022/05/03 17:58 KEUF 031758Z AUTO VRB06KT 10SM FEW050 31/17 A30 NO CARRIER RING CONNECT 115200 JANMTRNMM ALL TTAA00 KNMM 031801 COR METAR KNMM 031756Z 24009G15KT 10SM FEW035 SCT045 SCT065 BKN250 28/18 A3002 RMK AO2 SLP172 T02830183 10294 20217 58014
KJKA - Gulf Shores, Alabama, USA
Distance from station: SSW 132mi, 212km
Updated: Sun, 22-May-2022 10:55pm CDT
Light rain, Mist, Overcast
Light rain, Mist, Overcast
 Wind from N
Wind: N 14 mph , 22 km/h
Temperature: 70°F , 21°C
Dew Point: 70°F , 21°C
Humidity: 100%
Barometer: 29.91 inHg , 1012.9 hPa
Summary: Light rain, Mist
Clouds: Overcast
Visibility: 2 1/2 miles , 4 km
Cloud details: Mostly cloudy 800 ft
Overcast 1200 ft
2022/05/23 03:55 KJKA 230355Z AUTO 36012KT 2 1/2SM -RA BR BKN008 OVC012 21/21 A2991 RMK AO2 LTG DSNT SE P0004 VIS 1 1/2V4
KLSF - Ft Benning/Colum, Georgia, USA
Distance from station: SNE 89mi, 143km
Updated: Sun, 22-May-2022 10:56pm CDT
Clear
Clear
 Wind from E
Wind: E 3 mph , 6 km/h
Temperature: 68°F , 20°C
Dew Point: 68°F , 20°C
Humidity: 100%
Barometer: 30.11 inHg , 1019.6 hPa
Clouds: Clear
Visibility: 10 miles , 16 km
2022/05/23 03:56 KLSF 230356Z AUTO 09003KT 10SM CLR 20/20 A3011 RMK AO2 SLP200 T02040197 $
 
KMOB - Mobile/Bates, Alabama, USA
Distance from station: SW 125mi, 202km
Updated: Sun, 22-May-2022 11:04pm CDT
Light rain, Overcast
Light rain, Overcast
 Wind from N
Wind: N 7 mph , 11 km/h
Temperature: 72°F , 22°C
Dew Point: 68°F , 20°C
Humidity: 88%
Barometer: 30.02 inHg , 1016.6 hPa
Summary: Light rain
Clouds: Overcast
Visibility: 10 miles , 16 km
Cloud details: Partly cloudy 800 ft
Overcast 3800 ft
2022/05/23 04:04 KMOB 230404Z AUTO 36006KT 10SM -RA SCT008 OVC038 22/20 A3002 RMK AO2 P0000 T02170200 $
KNMM - Meridian Nas, Mississippi, USA
Distance from station: WNW 151mi, 243km
Updated: Sun, 22-May-2022 11:05pm CDT
Light rain, Overcast
Light rain, Overcast
 Wind from calm
Wind: Calm
Temperature: 70°F , 21°C
Dew Point: 70°F , 21°C
Humidity: 100%
Barometer: 30.09 inHg , 1019 hPa
Summary: Light rain
Clouds: Overcast
Visibility: 10 miles , 16 km
Cloud details: Few Clouds 900 ft
Mostly cloudy 3700 ft
Overcast 5500 ft
2022/05/23 04:05 KNMM 230405Z AUTO 00000KT 10SM -RA FEW009 BKN037 OVC055 21/21 A3009 RMK AO2 TSE04 P0000 T02110211
KQHY - Hurlbert (Ft Walton Bch), Florida, USA
Distance from station: S 94mi, 151km
Updated: Sun, 22-May-2022 10:55pm CDT
Overcast
Overcast
 Wind from SE
Wind: SE 7 mph , 11 km/h
Temperature: 75°F , 24°C
Dew Point: 73°F , 23°C
Humidity: 94%
Barometer: 30.02 inHg , 1016.6 hPa
Clouds: Overcast
Visibility: 10 miles , 16 km
Cloud details: Mostly cloudy 1600 ft
Mostly cloudy 3500 ft
Overcast 4800 ft
2022/05/23 03:55 KQHY 230355Z AUTO 13006KT 10SM BKN016 BKN035 OVC048 24/23 A3002 RMK AO2 LTG DSNT E RAE08 CIG 016V022 BKN016 V SCT SLP172 P0000 T02390234
 
KTCL - Tuscaloosa, Alabama, USA
Distance from station: NNW 129mi, 207km
Updated: Sun, 22-May-2022 11:04pm CDT
Light rain, Overcast
Light rain, Overcast
 Wind from N
Wind: N 5 mph , 7 km/h
Temperature: 73°F , 23°C
Dew Point: 68°F , 20°C
Humidity: 83%
Barometer: 30.09 inHg , 1019 hPa
Summary: Light rain
Clouds: Overcast
Visibility: 10 miles , 16 km
Cloud details: Partly cloudy 2700 ft
Overcast 5500 ft
2022/05/23 04:04 KTCL 230404Z AUTO 01004KT 10SM -RA SCT027 OVC055 23/20 A3009 RMK AO2 LTG DSNT NE RAB04 P0000 T02280200
KECP - Panama City, Florida, USA
Distance from station: SSE 122mi, 196km
Updated: Sun, 22-May-2022 11:10pm CDT
Nearby thunderstorm, Light rain, Overcast
Nearby thunderstorm, Light rain, Overcast
 Wind from E
Wind: E 10 mph , 17 km/h
Temperature: 72°F , 22°C
Dew Point: 72°F , 22°C
Humidity: 100%
Barometer: 30.05 inHg , 1017.6 hPa
Summary: Nearby thunderstorm, Light rain
Clouds: Overcast
Visibility: 10 miles , 16 km
Cloud details: Partly cloudy 1200 ft
Mostly cloudy 5000 ft
Overcast 10000 ft
2022/05/23 04:10 KECP 230410Z AUTO 08009KT 10SM VCTS -RA SCT012 BKN050 OVC100 22/22 A3005 RMK AO1 LTG DSNT W AND NW TSE0356 P0000 T02170217
KCBM - Columbus Afb, Mississippi, USA
Distance from station: NW 175mi, 282km
Updated: Sun, 22-May-2022 11:06pm CDT
Partly cloudy
Partly cloudy
 Wind from N
Wind: N 8 mph , 13 km/h
Temperature: 70°F , 21°C
Dew Point: 70°F , 21°C
Humidity: 100%
Barometer: 30.08 inHg , 1018.6 hPa
Clouds: Partly cloudy
Visibility: 10 miles , 16 km
Cloud details: Partly cloudy 1000 ft
2022/05/23 04:06 KCBM 230406Z AUTO 35007KT 10SM SCT010 21/21 A3008 RMK AO2 SLP187 TSNO $
 
KBHM - Birmingham, Alabama, USA
Distance from station: N 132mi, 212km
Updated: Sun, 22-May-2022 11:04pm CDT
Overcast
Overcast
 Wind from N
Wind: N 5 mph , 7 km/h
Temperature: 72°F , 22°C
Dew Point: 70°F , 21°C
Humidity: 94%
Barometer: 30.13 inHg , 1020.3 hPa
Clouds: Overcast
Visibility: 10 miles , 16 km
Cloud details: Partly cloudy 2400 ft
Mostly cloudy 5000 ft
Overcast 7000 ft
2022/05/23 04:04 KBHM 230404Z 36004KT 10SM SCT024 BKN050 OVC070 22/21 A3013 RMK AO2 LTG DSNT W T02220206
KAAF - Apalachicola, Florida, USA
Distance from station: SSE 156mi, 250km
Updated: Sun, 22-May-2022 10:53pm CDT
Clear
Clear
 Wind from S
Wind: S 14 mph , 22 km/h
Temperature: 79°F , 26°C
Dew Point: 77°F , 25°C
Humidity: 94%
Barometer: 30.08 inHg , 1018.6 hPa
Clouds: Clear
Visibility: 9 miles , 14 km
2022/05/23 03:53 KAAF 230353Z AUTO 18012KT 9SM CLR 26/25 A3008 RMK AO2 SLP187 T02610250 $
KATL - Atlanta, Georgia, USA
Distance from station: NE 177mi, 287km
Updated: Sun, 22-May-2022 10:52pm CDT
Light rain, Overcast
Light rain, Overcast
 Wind from SSW
Wind: SSW 6 mph , 9 km/h
Temperature: 72°F , 22°C
Dew Point: 64°F , 18°C
Humidity: 78%
Barometer: 30.19 inHg , 1022.4 hPa
Summary: Light rain
Clouds: Overcast
Visibility: 10 miles , 16 km
Cloud details: Few Clouds 9000 ft
Overcast 12000 ft
2022/05/23 03:52 KATL 230352Z 20005KT 10SM -RA FEW090 OVC120 22/18 A3019 RMK AO2 RAB08 SLP214 BINOVC P0001 T02170183
 
KGPT - Gulfport, Mississippi, USA
Distance from station: SW 192mi, 309km
Updated: Sun, 22-May-2022 10:53pm CDT
Mostly cloudy
Mostly cloudy
 Wind from N
Wind: N 5 mph , 7 km/h
Temperature: 73°F , 23°C
Dew Point: 70°F , 21°C
Humidity: 89%
Barometer: 30.02 inHg , 1016.6 hPa
Clouds: Mostly cloudy
Visibility: 10 miles , 16 km
Cloud details: Mostly cloudy 5500 ft
Mostly cloudy 10000 ft
2022/05/23 03:53 KGPT 230353Z AUTO 36004KT 10SM BKN055 BKN100 23/21 A3002 RMK AO2 SLP164 T02330211
KNEW - New Orleans/Lake, Louisiana, USA
Distance from station: SW 255mi, 410km
Updated: Sun, 22-May-2022 10:53pm CDT
Few Clouds
Few Clouds
 Wind from S
Wind: S 3 mph , 6 km/h
Temperature: 77°F , 25°C
Dew Point: 70°F , 21°C
Humidity: 79%
Barometer: 30.04 inHg , 1017.3 hPa
Clouds: Few Clouds
Visibility: 10 miles , 16 km
Cloud details: Few Clouds 2400 ft
Few Clouds 4000 ft
2022/05/23 03:53 KNEW 230353Z 17003KT 10SM FEW024 FEW040 25/21 A3004 RMK AO2 SLP164 T02500206
KP92 - Salt Point, Louisiana, USA
Distance from station: SW 347mi, 559km
Updated: Sun, 22-May-2022 10:59pm CDT

 Wind from N
Wind: N 8 mph , 13 km/h
Temperature: 73°F , 23°C
Dew Point: 72°F , 22°C
Humidity: 94%
Barometer: 30.04 inHg , 1017.3 hPa
2022/05/23 03:59 KP92 230359Z AUTO 36007KT 23/22 A3004 RMK AO1 SLP173 T02280217